Time;durP1;ratioP1;P1;durP2;ratioP2;P2;SDS_P1;SDS_P2;PMS_P1;PMS_P2;Temp;Humidity;BMP_temperature;BMP_pressure;BME280_temperature;BME280_humidity;BME280_pressure;Samples;Min_cycle;Max_cycle;Signal;HPM_P1;HPM_P2
2021/07/21 00:00:46;;;;;;;4.60;4.18;;;;;;;20.34;57.33;101333.84;5010000;28;20022;-53
2021/07/21 00:03:12;;;;;;;5.13;4.68;;;;;;;20.34;57.52;101341.88;5008402;28;20109;-50
2021/07/21 00:05:37;;;;;;;4.45;4.07;;;;;;;20.33;57.61;101340.16;5009822;28;20101;-50
2021/07/21 00:08:03;;;;;;;6.22;4.47;;;;;;;20.33;57.52;101340.16;5010802;28;20104;-50
2021/07/21 00:10:31;;;;;;;4.20;3.88;;;;;;;20.31;57.53;101336.63;5010908;28;20022;-51
2021/07/21 00:18:47;;;;;;;4.60;4.20;;;;;;;20.31;57.48;101343.81;5009201;28;20030;-50
2021/07/21 00:21:19;;;;;;;4.78;3.92;;;;;;;20.28;57.46;101342.16;5012596;28;20108;-50
2021/07/21 00:23:48;;;;;;;4.45;4.10;;;;;;;20.29;57.42;101341.19;5013756;28;20076;-50
2021/07/21 00:26:13;;;;;;;4.68;4.28;;;;;;;20.28;57.58;101347.50;5010947;28;20040;-50
2021/07/21 00:28:41;;;;;;;4.80;4.40;;;;;;;20.27;57.49;101335.03;5012782;28;20109;-50
2021/07/21 00:31:16;;;;;;;4.50;4.10;;;;;;;20.26;57.47;101335.97;5013643;28;20079;-50
2021/07/21 00:33:42;;;;;;;4.55;4.15;;;;;;;20.25;57.48;101332.41;5013442;28;20033;-50
2021/07/21 00:36:07;;;;;;;4.50;4.07;;;;;;;20.25;57.43;101331.53;5005623;28;20616;-51
2021/07/21 00:38:32;;;;;;;4.30;3.90;;;;;;;20.24;57.62;101329.81;5013182;28;20034;-49
2021/07/21 00:40:58;;;;;;;4.40;4.10;;;;;;;20.23;57.34;101325.38;5010391;28;20026;-50
2021/07/21 00:43:23;;;;;;;4.75;4.25;;;;;;;20.23;57.43;101322.69;5011727;28;20065;-50
2021/07/21 00:45:48;;;;;;;4.88;4.38;;;;;;;20.23;57.54;101325.38;5010608;28;20065;-52
2021/07/21 00:48:14;;;;;;;5.00;4.50;;;;;;;20.21;57.64;101319.22;5015637;28;20396;-52
2021/07/21 00:50:48;;;;;;;4.78;4.13;;;;;;;20.21;57.42;101329.94;5016512;28;20828;-52
2021/07/21 00:53:14;;;;;;;4.95;4.40;;;;;;;20.22;57.47;101331.66;5011414;28;20037;-53
2021/07/21 00:55:39;;;;;;;4.80;4.40;;;;;;;20.19;57.53;101321.06;5001507;28;20034;-52
2021/07/21 00:58:05;;;;;;;4.40;4.00;;;;;;;20.18;57.53;101320.22;5010263;28;20069;-52
2021/07/21 01:00:33;;;;;;;4.43;4.03;;;;;;;20.17;57.44;101318.44;4985819;28;20033;-52
2021/07/21 01:03:01;;;;;;;4.50;4.07;;;;;;;20.17;57.38;101334.50;5012597;28;20030;-52
2021/07/21 01:05:30;;;;;;;5.45;4.70;;;;;;;20.16;57.45;101329.22;5018306;28;20024;-52
2021/07/21 01:07:58;;;;;;;4.88;3.90;;;;;;;20.16;57.47;101329.22;5016628;28;20101;-52
2021/07/21 01:10:25;;;;;;;4.68;4.28;;;;;;;20.15;57.43;101330.16;5015730;28;20392;-52
2021/07/21 01:13:02;;;;;;;4.35;3.95;;;;;;;20.15;57.36;101335.50;5014313;28;20030;-52
2021/07/21 01:15:46;;;;;;;4.68;4.28;;;;;;;20.14;57.38;101339.97;5009334;28;20040;-53
2021/07/21 01:18:17;;;;;;;6.22;4.38;;;;;;;20.11;57.40;101338.31;5007848;28;20033;-52
2021/07/21 01:21:09;;;;;;;4.57;4.18;;;;;;;20.11;57.43;101340.13;5014508;28;20029;-52
2021/07/21 01:24:13;;;;;;;4.47;4.07;;;;;;;20.10;57.36;101338.34;5016148;28;20034;-52
2021/07/21 01:27:16;;;;;;;4.68;4.28;;;;;;;20.09;57.43;101348.22;5012242;28;20030;-50
2021/07/21 01:29:45;;;;;;;5.18;3.78;;;;;;;20.07;57.40;101350.06;5001365;28;20057;-50
2021/07/21 01:32:13;;;;;;;4.30;3.90;;;;;;;20.07;57.59;101350.06;5013234;28;20553;-49
2021/07/21 01:34:39;;;;;;;4.47;4.07;;;;;;;20.07;57.46;101346.53;5010625;28;20022;-53
2021/07/21 01:37:08;;;;;;;4.22;3.90;;;;;;;20.07;57.62;101349.22;5013039;28;20043;-51
2021/07/21 01:39:37;;;;;;;4.25;3.92;;;;;;;20.05;57.59;101346.59;5011638;28;20026;-50
2021/07/21 01:42:05;;;;;;;4.43;4.03;;;;;;;20.05;57.60;101351.94;5011683;28;20448;-52
2021/07/21 01:44:33;;;;;;;4.78;3.83;;;;;;;20.05;57.52;101348.38;5012522;28;20112;-50
2021/07/21 01:47:00;;;;;;;4.57;4.03;;;;;;;20.03;57.54;101345.75;5003383;28;20026;-50
2021/07/21 01:49:29;;;;;;;4.55;4.20;;;;;;;20.02;57.59;101346.69;5009985;28;20021;-50
2021/07/21 01:51:59;;;;;;;4.07;3.75;;;;;;;20.02;57.59;101345.81;5010866;28;20443;-50
2021/07/21 01:54:24;;;;;;;4.40;4.00;;;;;;;20.00;57.53;101345.88;5007270;28;20032;-50
2021/07/21 01:56:50;;;;;;;4.43;4.13;;;;;;;20.00;57.69;101348.56;5009950;28;20125;-50
2021/07/21 01:59:16;;;;;;;5.63;5.13;;;;;;;20.00;57.69;101348.56;5008472;28;20508;-50
2021/07/21 02:01:41;;;;;;;4.22;3.85;;;;;;;19.98;57.69;101345.91;5012510;28;20034;-51
2021/07/21 02:04:07;;;;;;;4.30;3.95;;;;;;;19.98;57.71;101345.03;5010181;28;20069;-50
2021/07/21 02:06:33;;;;;;;4.28;3.97;;;;;;;19.97;57.68;101353.97;5016009;28;20053;-52
2021/07/21 02:09:11;;;;;;;5.07;3.90;;;;;;;19.95;57.67;101346.03;5013342;28;20091;-50
2021/07/21 02:11:38;;;;;;;4.13;3.72;;;;;;;19.96;57.67;101353.13;5011431;28;20109;-53
2021/07/21 02:14:05;;;;;;;4.53;4.13;;;;;;;19.95;57.58;101345.16;5014649;28;20033;-50
2021/07/21 02:16:31;;;;;;;4.65;4.15;;;;;;;19.93;57.64;101341.66;5009536;28;20026;-50
2021/07/21 02:18:57;;;;;;;4.28;3.88;;;;;;;19.93;57.66;101347.88;5012605;28;20399;-52
2021/07/21 02:21:26;;;;;;;4.22;3.90;;;;;;;19.92;57.72;101350.63;5014401;28;20033;-52
2021/07/21 02:23:52;;;;;;;4.10;3.80;;;;;;;19.91;57.80;101351.56;5010852;28;20113;-52
2021/07/21 02:26:18;;;;;;;4.38;3.95;;;;;;;19.90;57.68;101355.19;5012141;28;20064;-52
2021/07/21 02:28:44;;;;;;;3.90;3.60;;;;;;;19.90;57.67;101355.19;5009746;28;20034;-53
2021/07/21 02:31:14;;;;;;;4.60;4.07;;;;;;;19.88;57.81;101352.56;5010980;28;20045;-53
2021/07/21 02:34:12;;;;;;;4.15;3.83;;;;;;;19.87;57.82;101353.47;5010823;28;20045;-51
2021/07/21 02:36:38;;;;;;;4.68;4.18;;;;;;;19.86;57.79;101352.59;4980100;28;20099;-53
2021/07/21 02:39:06;;;;;;;4.00;3.60;;;;;;;19.85;57.93;101353.50;5010074;28;20034;-53
2021/07/21 02:41:34;;;;;;;4.30;3.90;;;;;;;19.85;57.74;101360.69;5013474;28;20040;-53
2021/07/21 02:44:00;;;;;;;4.72;4.28;;;;;;;19.83;57.78;101366.09;5008356;28;20022;-53
2021/07/21 02:46:26;;;;;;;4.55;4.15;;;;;;;19.83;57.89;101363.41;5004414;28;20037;-50
2021/07/21 02:48:51;;;;;;;4.28;3.97;;;;;;;19.83;57.96;101368.78;5006041;28;20049;-54
2021/07/21 02:51:28;;;;;;;3.75;3.45;;;;;;;19.81;57.91;101354.56;5010532;28;20495;-51
2021/07/21 02:54:02;;;;;;;4.18;3.80;;;;;;;19.81;57.85;101361.75;5013261;28;20361;-52
2021/07/21 02:56:30;;;;;;;3.75;3.45;;;;;;;19.80;57.91;101366.22;5009861;28;20026;-53
2021/07/21 02:59:03;;;;;;;4.18;3.88;;;;;;;19.80;58.01;101360.84;5011076;28;20030;-52
2021/07/21 03:01:29;;;;;;;4.25;3.85;;;;;;;19.77;58.03;101358.28;5009461;28;20145;-50
2021/07/21 03:03:55;;;;;;;3.95;3.58;;;;;;;19.78;58.01;101367.19;5008904;28;20025;-50
2021/07/21 03:06:23;;;;;;;4.28;3.95;;;;;;;19.77;57.86;101362.78;5007550;28;20026;-49
2021/07/21 03:08:50;;;;;;;4.13;3.70;;;;;;;19.75;57.95;101360.16;5004590;28;20028;-50
2021/07/21 03:11:17;;;;;;;4.43;4.03;;;;;;;19.75;57.87;101363.69;4994755;28;20049;-50
2021/07/21 03:13:46;;;;;;;3.97;3.67;;;;;;;19.74;57.96;101361.97;5009715;28;20034;-50
2021/07/21 03:16:13;;;;;;;3.83;3.53;;;;;;;19.76;57.91;101369.94;5009045;28;20060;-50
2021/07/21 03:18:38;;;;;;;3.75;3.45;;;;;;;19.73;58.07;101370.91;4996896;28;20022;-50
2021/07/21 03:21:04;;;;;;;3.95;3.65;;;;;;;19.73;58.04;101367.38;5008333;28;20036;-50
2021/07/21 03:23:33;;;;;;;4.38;3.97;;;;;;;19.72;57.94;101365.63;5009676;28;20030;-50
2021/07/21 03:26:00;;;;;;;4.10;3.70;;;;;;;19.71;57.96;101366.56;5006555;28;20554;-50
2021/07/21 03:28:26;;;;;;;4.78;4.22;;;;;;;19.70;58.13;101367.47;5006575;28;20022;-50
2021/07/21 03:30:52;;;;;;;4.10;3.70;;;;;;;19.69;58.13;101369.28;5008030;28;20034;-51
2021/07/21 03:33:25;;;;;;;4.00;3.70;;;;;;;19.68;58.21;101367.56;5003425;28;20022;-50
2021/07/21 03:35:51;;;;;;;3.85;3.55;;;;;;;19.69;58.37;101371.09;4997968;28;20022;-50
2021/07/21 03:38:20;;;;;;;4.40;3.75;;;;;;;19.66;58.24;101366.72;5000436;28;20059;-50
2021/07/21 03:40:49;;;;;;;4.55;3.92;;;;;;;19.66;58.41;101366.72;5004678;28;20069;-50
2021/07/21 03:43:15;;;;;;;4.22;3.85;;;;;;;19.67;58.28;101370.28;5010029;28;20085;-50
2021/07/21 03:45:40;;;;;;;4.72;4.30;;;;;;;19.65;58.42;101377.47;5005495;28;20606;-49
2021/07/21 03:48:05;;;;;;;4.70;4.30;;;;;;;19.65;58.59;101375.69;5012724;28;20022;-51
2021/07/21 03:50:31;;;;;;;3.92;3.58;;;;;;;19.65;58.39;101377.47;5003536;28;20383;-50
2021/07/21 03:52:59;;;;;;;4.28;3.42;;;;;;;19.64;58.54;101379.25;5007179;28;20041;-50
2021/07/21 03:55:35;;;;;;;3.85;3.53;;;;;;;19.61;58.64;101380.25;5010508;28;20453;-50
2021/07/21 03:58:01;;;;;;;3.72;3.42;;;;;;;19.61;58.63;101390.97;5012576;28;20160;-53
2021/07/21 04:00:29;;;;;;;4.60;4.20;;;;;;;19.61;58.61;101384.75;5000062;28;20101;-50
2021/07/21 04:03:00;;;;;;;4.30;3.90;;;;;;;19.59;58.47;101387.47;5009578;28;20029;-50
2021/07/21 04:05:27;;;;;;;4.30;3.90;;;;;;;19.59;58.54;101400.84;5006079;28;20061;-53
2021/07/21 04:07:53;;;;;;;4.60;4.20;;;;;;;19.58;58.76;101396.41;5013672;28;20028;-50
2021/07/21 04:10:20;;;;;;;4.70;4.20;;;;;;;19.57;58.67;101394.69;5014050;28;20026;-50
2021/07/21 04:12:51;;;;;;;4.35;3.95;;;;;;;19.57;58.70;101397.34;5011619;28;20033;-50
2021/07/21 04:15:21;;;;;;;4.00;3.70;;;;;;;19.56;58.66;101390.25;5012338;28;20034;-50
2021/07/21 04:17:51;;;;;;;4.83;4.33;;;;;;;19.56;58.68;101406.31;5010093;28;20034;-50
2021/07/21 04:20:17;;;;;;;4.15;3.78;;;;;;;19.55;58.88;101407.25;5003595;28;20037;-50
2021/07/21 04:22:46;;;;;;;5.13;4.65;;;;;;;19.54;58.74;101399.28;5010498;28;20030;-50
2021/07/21 04:25:13;;;;;;;4.70;4.30;;;;;;;19.53;58.90;101401.06;5009412;28;20492;-51
2021/07/21 04:27:40;;;;;;;4.35;4.03;;;;;;;19.53;58.94;101405.53;5013335;28;20045;-50
2021/07/21 04:30:06;;;;;;;4.63;4.22;;;;;;;19.53;58.85;101405.53;5013091;28;20518;-50
2021/07/21 04:32:32;;;;;;;4.50;4.10;;;;;;;19.51;58.89;101405.63;5010404;28;20060;-50
2021/07/21 04:34:57;;;;;;;4.60;4.20;;;;;;;19.51;59.09;101410.97;5011929;28;20036;-50
2021/07/21 04:37:23;;;;;;;4.78;4.25;;;;;;;19.49;59.03;101408.34;5012818;28;20455;-50
2021/07/21 04:39:49;;;;;;;4.72;3.97;;;;;;;19.49;58.94;101411.00;5012738;28;20029;-49
2021/07/21 04:42:18;;;;;;;5.03;4.63;;;;;;;19.49;59.12;101418.16;5013235;28;20033;-50
2021/07/21 04:44:46;;;;;;;4.28;3.88;;;;;;;19.48;58.89;101417.28;5011566;28;20499;-51
2021/07/21 04:47:12;;;;;;;4.35;4.05;;;;;;;19.47;59.00;101422.66;5008617;28;20487;-50
2021/07/21 04:49:40;;;;;;;4.55;4.22;;;;;;;19.48;59.12;101419.94;5012462;28;20032;-50
2021/07/21 04:52:06;;;;;;;3.83;3.53;;;;;;;19.47;58.99;101428.03;5013621;28;20021;-50
2021/07/21 04:54:32;;;;;;;4.38;4.05;;;;;;;19.46;59.14;101427.16;5010507;28;20516;-51
2021/07/21 04:56:59;;;;;;;4.65;4.25;;;;;;;19.46;59.14;101428.97;5010885;28;20072;-50
2021/07/21 04:59:24;;;;;;;4.60;4.20;;;;;;;19.44;59.19;101429.00;5011609;28;20088;-50
2021/07/21 05:01:51;;;;;;;4.78;4.10;;;;;;;19.45;59.29;101435.25;5009888;28;20030;-50
2021/07/21 05:04:17;;;;;;;4.88;4.38;;;;;;;19.44;59.11;101430.81;5010387;28;20037;-50
2021/07/21 05:06:45;;;;;;;5.13;4.63;;;;;;;19.43;59.11;101434.41;5011539;28;20480;-50
2021/07/21 05:09:11;;;;;;;4.30;4.00;;;;;;;19.43;59.18;101426.38;5012195;28;20025;-50
2021/07/21 05:11:37;;;;;;;5.13;4.63;;;;;;;19.41;59.22;101430.94;5011992;28;20116;-51
2021/07/21 05:14:03;;;;;;;6.18;5.18;;;;;;;19.41;59.16;101433.59;5009869;28;20032;-50
2021/07/21 05:16:32;;;;;;;4.32;4.03;;;;;;;19.40;59.31;101440.75;5010811;28;20044;-50
2021/07/21 05:18:58;;;;;;;4.60;4.20;;;;;;;19.41;59.16;101437.13;5012398;28;20022;-50
2021/07/21 05:21:24;;;;;;;4.65;4.22;;;;;;;19.40;59.01;101443.41;5010958;28;20087;-50
2021/07/21 05:23:50;;;;;;;5.40;4.43;;;;;;;19.39;59.32;101441.69;5013230;28;20051;-50
2021/07/21 05:26:15;;;;;;;5.05;4.55;;;;;;;19.39;59.42;101438.13;5011845;28;20018;-50
2021/07/21 05:28:44;;;;;;;4.78;4.38;;;;;;;19.39;59.18;101444.34;5011647;28;20030;-50
2021/07/21 05:31:10;;;;;;;5.47;4.68;;;;;;;19.38;59.34;101437.25;5012280;28;20403;-50
2021/07/21 05:33:41;;;;;;;5.15;4.53;;;;;;;19.38;59.26;101452.41;5011590;28;20029;-50
2021/07/21 05:36:06;;;;;;;4.85;4.35;;;;;;;19.38;59.25;101455.97;5006058;28;20103;-52
2021/07/21 05:38:38;;;;;;;5.55;4.28;;;;;;;19.38;59.42;101457.78;5011677;28;20488;-50
2021/07/21 05:41:05;;;;;;;5.30;4.55;;;;;;;19.36;59.39;101461.38;5011344;28;20112;-50
2021/07/21 05:43:31;;;;;;;5.20;4.70;;;;;;;19.35;59.31;101459.59;5013510;28;20041;-50
2021/07/21 05:45:56;;;;;;;5.57;4.60;;;;;;;19.36;59.26;101457.81;5004645;28;20030;-50
2021/07/21 05:48:22;;;;;;;5.50;4.88;;;;;;;19.36;59.35;101465.84;5004455;28;20396;-53
2021/07/21 05:50:47;;;;;;;6.85;5.25;;;;;;;19.36;59.47;101465.84;5007292;28;20033;-50
2021/07/21 05:53:12;;;;;;;5.38;4.88;;;;;;;19.36;59.44;101477.44;5011540;28;20496;-51
2021/07/21 05:55:38;;;;;;;6.38;5.68;;;;;;;19.34;59.43;101468.56;5011211;28;20101;-50
2021/07/21 05:58:03;;;;;;;5.80;4.85;;;;;;;19.34;59.30;101465.88;5013275;28;20492;-50
2021/07/21 06:00:31;;;;;;;5.65;5.15;;;;;;;19.33;59.58;101466.81;5010918;28;20033;-50
2021/07/21 06:03:00;;;;;;;5.53;4.80;;;;;;;19.33;59.36;101466.81;5010890;28;20534;-50
2021/07/21 06:05:25;;;;;;;4.97;4.47;;;;;;;19.33;59.41;101477.53;5009441;28;20033;-50
2021/07/21 06:07:50;;;;;;;5.43;4.85;;;;;;;19.32;59.55;101469.53;5010585;28;20034;-50
2021/07/21 06:10:15;;;;;;;5.78;5.18;;;;;;;19.32;59.45;101475.78;5009273;28;20018;-50
2021/07/21 06:12:41;;;;;;;8.60;5.15;;;;;;;19.32;59.50;101475.78;5011644;28;20057;-50
2021/07/21 06:15:07;;;;;;;5.38;4.88;;;;;;;19.32;59.44;101478.47;5009968;28;20068;-50
2021/07/21 06:17:33;;;;;;;6.05;4.82;;;;;;;19.31;59.74;101478.50;5010105;28;20088;-50
2021/07/21 06:19:59;;;;;;;5.25;4.75;;;;;;;19.31;59.49;101478.50;5009473;28;20113;-51
2021/07/21 06:22:25;;;;;;;5.32;4.60;;;;;;;19.31;59.62;101483.84;5014734;28;20105;-50
2021/07/21 06:24:56;;;;;;;5.15;4.63;;;;;;;19.30;59.61;101488.31;5012621;28;20524;-51
2021/07/21 06:27:21;;;;;;;4.80;4.40;;;;;;;19.30;59.53;101485.63;5011361;28;20638;-52
2021/07/21 06:29:47;;;;;;;6.50;5.90;;;;;;;19.29;59.67;101491.91;5010274;28;20034;-50
2021/07/21 06:32:12;;;;;;;4.97;4.47;;;;;;;19.29;59.80;101489.25;5012093;28;20096;-52
2021/07/21 06:34:37;;;;;;;5.22;4.72;;;;;;;19.29;59.72;101496.38;5007855;28;20101;-50
2021/07/21 06:37:03;;;;;;;6.18;5.00;;;;;;;19.29;59.78;101496.38;5006626;28;20554;-51
2021/07/21 06:39:28;;;;;;;6.13;5.35;;;;;;;19.29;59.84;101496.38;5009861;28;20034;-51
2021/07/21 06:41:53;;;;;;;7.07;5.18;;;;;;;19.28;59.88;101506.22;5008592;28;20096;-50
2021/07/21 06:44:19;;;;;;;5.13;4.50;;;;;;;19.29;59.74;101507.09;5009678;28;20055;-51
2021/07/21 06:46:44;;;;;;;5.95;5.35;;;;;;;19.28;59.83;101502.66;5008024;28;20032;-50
2021/07/21 06:49:09;;;;;;;5.13;4.60;;;;;;;19.27;59.75;101500.94;5006416;28;20026;-50
2021/07/21 06:51:35;;;;;;;5.22;4.75;;;;;;;19.28;59.83;101510.69;5009355;28;20025;-51
2021/07/21 06:54:03;;;;;;;5.60;5.10;;;;;;;19.27;59.91;101507.13;5010459;28;20104;-50
2021/07/21 06:56:29;;;;;;;5.38;4.85;;;;;;;19.28;59.88;101516.03;5008987;28;20128;-51
2021/07/21 06:58:55;;;;;;;5.30;4.80;;;;;;;19.28;59.87;101510.69;5009163;28;20160;-50
2021/07/21 07:01:21;;;;;;;5.60;5.10;;;;;;;19.27;59.70;101511.63;5007203;28;20057;-50
2021/07/21 07:03:47;;;;;;;5.43;4.95;;;;;;;19.27;59.81;101520.50;5015551;28;20443;-50
2021/07/21 07:06:12;;;;;;;6.53;4.63;;;;;;;19.27;59.77;101523.19;5009000;28;20492;-50
2021/07/21 07:08:37;;;;;;;6.68;5.97;;;;;;;19.26;59.86;101518.75;5009312;28;20026;-50
2021/07/21 07:11:03;;;;;;;4.97;4.53;;;;;;;19.27;59.89;101511.63;5009282;28;20109;-51
2021/07/21 07:13:28;;;;;;;5.30;4.80;;;;;;;19.28;59.94;101522.28;5009485;28;20083;-51
2021/07/21 07:15:55;;;;;;;6.60;5.40;;;;;;;19.26;59.96;101523.22;5006242;28;20025;-51
2021/07/21 07:18:23;;;;;;;5.72;5.22;;;;;;;19.27;60.00;101525.00;5008417;28;20520;-50
2021/07/21 07:20:50;;;;;;;5.57;4.93;;;;;;;19.27;60.14;101523.19;5004803;28;20136;-50
2021/07/21 07:23:15;;;;;;;5.35;4.85;;;;;;;19.26;60.11;101528.56;5008175;28;20678;-50
2021/07/21 07:25:41;;;;;;;5.10;4.70;;;;;;;19.25;60.09;101527.72;5008223;28;20037;-50
2021/07/21 07:28:07;;;;;;;5.50;5.05;;;;;;;19.26;60.02;101529.47;5010062;28;20026;-50
2021/07/21 07:30:32;;;;;;;5.55;5.05;;;;;;;19.26;60.21;101528.56;5008485;28;20057;-50
2021/07/21 07:32:58;;;;;;;6.78;5.53;;;;;;;19.27;60.11;101535.69;5005987;28;20108;-51
2021/07/21 07:35:23;;;;;;;5.43;4.93;;;;;;;19.25;60.24;101522.38;5009806;28;20176;-50
2021/07/21 07:37:49;;;;;;;5.80;5.13;;;;;;;19.25;60.31;101530.38;5011274;28;20040;-50
2021/07/21 07:40:14;;;;;;;6.38;5.22;;;;;;;19.26;60.36;101531.25;5010907;28;20029;-51
2021/07/21 07:42:40;;;;;;;5.97;5.30;;;;;;;19.27;60.43;101530.34;5012078;28;20060;-50
2021/07/21 07:45:06;;;;;;;6.25;5.65;;;;;;;19.25;60.44;101527.72;5008266;28;20037;-50
2021/07/21 07:47:32;;;;;;;7.18;5.43;;;;;;;19.25;60.70;101526.81;5009030;28;20605;-51
2021/07/21 07:49:59;;;;;;;6.10;5.50;;;;;;;19.25;61.00;101526.81;5010758;28;20494;-50
2021/07/21 07:52:27;;;;;;;6.10;5.25;;;;;;;19.25;60.86;101525.03;5009128;28;20496;-50
2021/07/21 07:54:52;;;;;;;7.35;6.00;;;;;;;19.25;61.05;101521.47;5009704;28;20034;-51
2021/07/21 07:57:18;;;;;;;6.07;5.47;;;;;;;19.25;60.37;101522.38;5008841;28;20033;-50
2021/07/21 07:59:44;;;;;;;9.23;6.43;;;;;;;19.25;61.28;101517.03;5007781;28;20034;-50
2021/07/21 08:02:09;;;;;;;6.38;5.78;;;;;;;19.27;61.27;101525.00;5007145;28;20029;-50
2021/07/21 08:04:34;;;;;;;6.55;5.72;;;;;;;19.26;61.08;101529.47;5007227;28;20380;-51
2021/07/21 08:07:00;;;;;;;6.40;5.78;;;;;;;19.27;60.81;101523.19;5009098;28;20022;-50
2021/07/21 08:09:25;;;;;;;6.13;5.57;;;;;;;19.26;60.70;101521.44;5009541;28;20030;-50
2021/07/21 08:11:58;;;;;;;6.47;5.88;;;;;;;19.26;60.66;101523.22;5010207;28;20439;-50
2021/07/21 08:14:24;;;;;;;6.45;5.82;;;;;;;19.26;60.69;101524.09;5009037;28;20026;-50
2021/07/21 08:16:53;;;;;;;7.40;6.05;;;;;;;19.27;60.58;101525.84;5009998;28;20548;-50
2021/07/21 08:19:19;;;;;;;6.90;6.20;;;;;;;19.27;60.71;101525.00;5008305;28;20160;-50
2021/07/21 08:21:51;;;;;;;7.45;5.88;;;;;;;19.26;60.72;101529.47;5008481;28;20034;-50
2021/07/21 08:24:17;;;;;;;7.47;6.05;;;;;;;19.27;61.12;101523.19;5005777;28;20160;-50
2021/07/21 08:26:43;;;;;;;8.15;6.78;;;;;;;19.28;61.00;101532.09;5006741;28;20104;-50
2021/07/21 08:29:11;;;;;;;9.50;5.95;;;;;;;19.27;60.87;101528.53;5008241;28;20041;-50
2021/07/21 08:31:37;;;;;;;7.95;6.03;;;;;;;19.27;60.85;101533.00;5012351;28;20423;-50
2021/07/21 08:34:05;;;;;;;8.75;6.40;;;;;;;19.27;61.33;101533.88;5013338;28;20026;-51
2021/07/21 08:36:31;;;;;;;6.75;5.80;;;;;;;19.29;61.14;101531.16;5009727;28;20018;-50
2021/07/21 08:39:00;;;;;;;6.78;5.80;;;;;;;19.28;61.02;101534.75;5011516;28;20057;-51
2021/07/21 08:41:28;;;;;;;6.90;6.00;;;;;;;19.28;61.40;101532.97;5013528;28;20458;-50
2021/07/21 08:43:54;;;;;;;6.93;6.22;;;;;;;19.27;61.44;101525.84;5013825;28;20679;-50
2021/07/21 08:46:21;;;;;;;7.75;6.32;;;;;;;19.28;60.95;101527.63;5011919;28;20053;-50
2021/07/21 08:48:50;;;;;;;6.50;5.95;;;;;;;19.30;61.36;101536.47;5011867;28;20083;-50
2021/07/21 08:51:16;;;;;;;7.93;7.03;;;;;;;19.27;61.54;101536.53;5012055;28;20030;-51
2021/07/21 08:53:42;;;;;;;6.60;5.97;;;;;;;19.29;61.41;101540.06;5013953;28;20473;-51
2021/07/21 08:56:15;;;;;;;8.70;6.95;;;;;;;19.28;61.14;101538.31;5010075;28;20084;-50
2021/07/21 08:58:40;;;;;;;8.70;6.57;;;;;;;19.29;61.37;101534.72;5011179;28;20040;-50
2021/07/21 09:01:06;;;;;;;6.82;6.13;;;;;;;19.30;61.18;101540.91;5010879;28;20117;-51
2021/07/21 09:03:31;;;;;;;9.32;6.57;;;;;;;19.29;61.30;101534.72;5011967;28;20026;-51
2021/07/21 09:05:56;;;;;;;7.57;6.43;;;;;;;19.31;61.39;101538.19;5012628;28;20357;-50
2021/07/21 09:08:22;;;;;;;8.73;7.85;;;;;;;19.29;61.51;101529.38;5014973;28;20025;-50
2021/07/21 09:10:49;;;;;;;7.53;6.70;;;;;;;19.30;61.83;101543.59;5013235;28;20029;-51
2021/07/21 09:13:14;;;;;;;9.27;6.95;;;;;;;19.30;61.40;101539.13;5012624;28;20404;-50
2021/07/21 09:16:31;;;;;;;7.13;6.43;;;;;;;19.30;60.99;101541.81;5011169;28;20030;-51
2021/07/21 09:18:58;;;;;;;7.78;6.90;;;;;;;19.29;61.62;101529.38;5013031;28;20037;-51
2021/07/21 09:21:25;;;;;;;9.52;6.70;;;;;;;19.30;61.69;101536.47;5015612;28;20446;-50
2021/07/21 09:23:54;;;;;;;7.57;6.78;;;;;;;19.31;61.38;101538.19;5011851;28;20022;-50
2021/07/21 09:26:23;;;;;;;7.25;6.22;;;;;;;19.30;61.57;101541.81;5010159;28;20409;-50
2021/07/21 09:28:49;;;;;;;6.88;6.15;;;;;;;19.31;61.31;101543.53;5011906;28;20037;-50
2021/07/21 09:31:30;;;;;;;6.65;5.95;;;;;;;19.31;61.35;101538.19;5009927;28;20096;-50
2021/07/21 09:33:56;;;;;;;8.18;7.03;;;;;;;19.31;60.97;101542.69;5011119;28;20025;-54
2021/07/21 09:36:21;;;;;;;7.15;6.45;;;;;;;19.32;61.22;101542.66;5011077;28;20499;-50
2021/07/21 09:38:59;;;;;;;6.97;6.28;;;;;;;19.31;61.35;101548.88;5014522;28;20025;-51
2021/07/21 09:41:27;;;;;;;7.15;6.05;;;;;;;19.31;61.56;101543.53;5011978;28;20033;-50
2021/07/21 09:44:04;;;;;;;8.15;6.13;;;;;;;19.32;61.52;101545.31;5010503;28;21215;-50
2021/07/21 09:46:32;;;;;;;7.13;6.05;;;;;;;19.32;61.31;101545.31;5011892;28;20547;-51
2021/07/21 09:48:58;;;;;;;8.25;6.68;;;;;;;19.32;61.46;101542.66;5009246;28;20045;-51
2021/07/21 09:55:09;;;;;;;8.20;6.90;;;;;;;19.33;61.17;101540.81;5010632;28;20040;-51
2021/07/21 09:57:34;;;;;;;8.10;6.63;;;;;;;19.32;61.37;101539.09;5010291;28;20030;-51
2021/07/21 10:00:20;;;;;;;6.97;6.07;;;;;;;19.33;61.51;101532.78;5009613;28;20025;-51
2021/07/21 10:02:47;;;;;;;6.80;6.10;;;;;;;19.33;61.38;101536.38;5013062;28;20037;-50
2021/07/21 10:05:12;;;;;;;6.25;5.65;;;;;;;19.33;61.44;101535.47;5008479;28;20361;-50
2021/07/21 10:07:50;;;;;;;6.40;5.65;;;;;;;19.34;61.43;101534.56;5010387;28;20079;-51
2021/07/21 10:10:21;;;;;;;7.65;6.07;;;;;;;19.33;61.62;101536.38;5009371;28;20034;-51
2021/07/21 10:13:06;;;;;;;6.90;6.05;;;;;;;19.36;61.35;101530.03;5007143;28;20017;-50
2021/07/21 10:15:34;;;;;;;7.82;6.07;;;;;;;19.35;61.45;101523.78;5008761;28;20439;-50
2021/07/21 10:18:18;;;;;;;6.25;5.32;;;;;;;19.34;61.53;101522.06;5009659;28;20034;-50
2021/07/21 10:20:46;;;;;;;5.38;4.72;;;;;;;19.35;61.41;101534.50;5006705;28;20112;-51
2021/07/21 10:23:23;;;;;;;7.07;5.63;;;;;;;19.36;61.45;101535.38;5010180;28;20021;-51
2021/07/21 10:25:48;;;;;;;6.60;5.65;;;;;;;19.36;61.65;101536.25;5008123;28;20026;-51
2021/07/21 10:28:13;;;;;;;6.65;5.45;;;;;;;19.36;61.34;101536.25;5012863;28;20530;-51
2021/07/21 10:30:41;;;;;;;6.53;5.43;;;;;;;19.37;61.58;101537.13;5010610;28;20026;-51
2021/07/21 10:33:07;;;;;;;6.63;5.07;;;;;;;19.38;61.44;101540.69;5011316;28;20109;-51
2021/07/21 10:35:32;;;;;;;7.22;5.68;;;;;;;19.38;61.55;101541.56;5012088;28;20450;-51
2021/07/21 10:37:58;;;;;;;7.22;5.57;;;;;;;19.38;61.63;101540.69;5013876;28;20026;-51
2021/07/21 10:40:25;;;;;;;7.80;5.93;;;;;;;19.36;61.69;101538.94;5011717;28;20039;-49
2021/07/21 10:42:53;;;;;;;8.18;5.43;;;;;;;19.39;61.39;101535.28;5011349;28;20018;-50
2021/07/21 10:45:21;;;;;;;6.43;5.25;;;;;;;19.39;61.40;101534.41;5008182;28;20079;-51
2021/07/21 10:47:52;;;;;;;5.88;5.28;;;;;;;19.38;61.57;101538.00;5014067;28;20057;-52
2021/07/21 10:50:58;;;;;;;7.45;4.82;;;;;;;19.40;61.54;101531.69;5009251;28;20026;-50
2021/07/21 10:59:15;;;;;;;16.13;6.10;;;;;;;19.41;61.50;101535.25;5013628;28;21261;-52
2021/07/21 11:01:59;;;;;;;9.05;5.55;;;;;;;19.42;61.65;101536.97;5015377;28;20475;-50
2021/07/21 11:04:40;;;;;;;10.32;5.65;;;;;;;19.42;61.54;101528.97;4989409;28;20853;-50
2021/07/21 11:07:05;;;;;;;7.40;4.82;;;;;;;19.42;61.61;101535.19;5009055;28;20113;-51
2021/07/21 11:09:34;;;;;;;6.53;5.22;;;;;;;19.42;61.66;101540.53;5012380;28;20113;-50
2021/07/21 11:12:03;;;;;;;9.40;5.35;;;;;;;19.42;61.53;101529.84;5006135;28;20017;-52
2021/07/21 11:14:32;;;;;;;9.63;5.90;;;;;;;19.43;61.55;101530.69;5012423;28;20125;-50
2021/07/21 11:17:12;;;;;;;26.17;6.72;;;;;;;19.44;61.50;101527.13;5009657;28;20022;-50
2021/07/21 11:19:51;;;;;;;14.43;5.70;;;;;;;19.46;61.46;101530.59;4988271;28;20053;-50
2021/07/21 11:22:19;;;;;;;12.73;5.72;;;;;;;19.46;61.51;101525.25;5007713;28;20045;-50
2021/07/21 11:25:16;;;;;;;13.27;6.05;;;;;;;19.46;61.58;101530.59;5008796;28;20538;-51
2021/07/21 11:28:00;;;;;;;13.10;5.85;;;;;;;19.45;61.51;101536.88;5003171;28;20037;-52
2021/07/21 11:30:47;;;;;;;11.48;5.25;;;;;;;19.46;61.64;101535.94;4999453;28;20033;-51
2021/07/21 11:33:50;;;;;;;8.48;5.32;;;;;;;19.48;61.58;101529.63;5006313;28;20049;-51
2021/07/21 11:36:46;;;;;;;9.02;5.15;;;;;;;19.48;61.78;101534.13;5004438;28;20037;-50
2021/07/21 11:39:42;;;;;;;7.63;5.10;;;;;;;19.46;61.76;101541.31;5009899;28;20029;-51
2021/07/21 11:42:22;;;;;;;8.90;6.18;;;;;;;19.49;61.59;101543.88;5003201;28;20483;-51
2021/07/21 11:45:11;;;;;;;11.07;4.90;;;;;;;19.51;61.60;101547.41;5004683;28;20032;-51
2021/07/21 11:47:48;;;;;;;6.95;5.30;;;;;;;19.50;61.82;101545.63;5008256;28;20037;-51